Little Neck, New York
Current Conditions -  °F | °C
As of 3:51 PM on Friday 28 Nov 2014 (Local Time) from KLGA Reporting Station
Few Clouds Few Clouds  
Wind Chill: 24°   Ceiling: Unl
Heat Index: 34°   Visibility: 10mi
Dew Point: 16°   Wind: 15mph
Humidity: 48%   Direction: 300°WNW
Pressure: 30.19"   Gusts: 25mph
Location:  40.76°N, 73.74°W
Report Text: KLGA 282051Z 30013G22KT 10SM FEW045 01/M09 A3019 RMK AO2 SLP222 T00111089 53012
Loading
Personal Weather Stations






























Interactive Weather Map New forecast layout! Learn more

10-Day Weather Forecast

Advertisements
Track Severe Weather on mobile